Latest Weather Observations for North Head

IDN60901

Issued at 11:01 am EST Tuesday 14 July 2020 (issued every 10 minutes, with the page automatically refreshed every 10 minutes)

About weather observations | Map of Sydney area stations | Latest observations for Sydney area | Other Formats
Station Details ID: 066197 Name: NORTH HEAD Lat: -33.82 Lon: 151.30 Height: 90.0 m
Data from the previous 72 hours. | See also: Recent months at North Head
Date/Time
EST
Temp
°C
App
Temp
°C
Dew
Point
°C
Rel
Hum
%
Delta-T
°C
Wind Press
QNH
hPa
Press
MSL
hPa
Rain since
9am
mm
Dir  Spd
km/h
Gust
km/h
Spd
kts
Gust
kts
14/11:00am - - - - - S 46 76 25 41 - - -
14/10:58am - - - - - S 44 76 24 41 - - -
14/10:47am - - - - - S 43 72 23 39 - - -
14/10:45am - - - - - S 44 72 24 39 - - -
14/10:30am - - - - - S 43 80 23 43 - - -
14/10:00am - - - - - SSW 33 61 18 33 - - -
14/09:30am - - - - - S 44 74 24 40 - - -
14/09:00am - - - - - S 46 69 25 37 - - -
14/08:30am - - - - - S 46 69 25 37 - - -
14/08:00am - - - - - S 52 76 28 41 - - -
14/07:30am - - - - - SSE 52 82 28 44 - - -
14/07:08am - - - - - S 52 87 28 47 - - -
14/07:00am - - - - - S 43 69 23 37 - - -
14/06:30am - - - - - SSW 32 69 17 37 - - -
14/06:28am - - - - - SW 28 69 15 37 - - -
14/06:00am - - - - - WSW 30 50 16 27 - - -
14/05:54am - - - - - WSW 30 50 16 27 - - -
14/05:30am - - - - - W 28 44 15 24 - - -
14/05:00am - - - - - SW 26 46 14 25 - - -
14/04:30am - - - - - SW 30 46 16 25 - - -
14/04:04am - - - - - SW 30 50 16 27 - - -
14/04:00am - - - - - SW 30 44 16 24 - - -
14/03:31am - - - - - SW 28 46 15 25 - - -
14/03:30am - - - - - SW 28 43 15 23 - - -
14/03:14am - - - - - SW 28 50 15 27 - - -
14/03:00am - - - - - SW 26 48 14 26 - - -
14/02:30am - - - - - SW 32 52 17 28 - - -
14/02:03am - - - - - SW 28 46 15 25 - - -
14/02:00am - - - - - SW 26 46 14 25 - - -
14/01:30am - - - - - SW 20 37 11 20 - - -
14/01:00am - - - - - WSW 22 35 12 19 - - -
14/12:30am - - - - - WSW 19 28 10 15 - - -
14/12:00am - - - - - WSW 19 28 10 15 - - -
 
Date/Time
EST
Temp
°C
App
Temp
°C
Dew
Point
°C
Rel
Hum
%
Delta-T
°C
Wind Press
QNH
hPa
Press
MSL
hPa
Rain since
9am
mm
Dir  Spd
km/h
Gust
km/h
Spd
kts
Gust
kts
13/11:30pm - - - - - SW 20 30 11 16 - - -
13/11:00pm - - - - - WSW 20 35 11 19 - - -
13/10:30pm - - - - - WSW 19 30 10 16 - - -
13/10:00pm - - - - - WSW 22 37 12 20 - - -
13/09:30pm - - - - - W 17 26 9 14 - - -
13/09:00pm - - - - - W 20 30 11 16 - - -
13/08:30pm - - - - - W 22 32 12 17 - - -
13/08:00pm - - - - - W 15 20 8 11 - - -
13/07:30pm - - - - - WSW 15 24 8 13 - - -
13/07:00pm - - - - - WSW 13 19 7 10 - - -
13/06:30pm - - - - - W 11 17 6 9 - - -
13/06:00pm - - - - - W 11 15 6 8 - - -
13/05:30pm - - - - - SW 9 17 5 9 - - -
13/05:00pm - - - - - SW 9 17 5 9 - - -
13/04:30pm - - - - - SSW 9 17 5 9 - - -
13/04:00pm - - - - - S 9 17 5 9 - - -
13/03:30pm - - - - - S 11 17 6 9 - - -
13/03:00pm - - - - - SSE 9 15 5 8 - - -
13/02:30pm - - - - - SW 6 9 3 5 - - -
13/02:00pm - - - - - SSW 6 9 3 5 - - -
13/01:30pm - - - - - WSW 7 11 4 6 - - -
13/01:00pm - - - - - WSW 6 9 3 5 - - -
13/12:30pm - - - - - WSW 7 11 4 6 - - -
13/12:00pm - - - - - WSW 9 15 5 8 - - -
13/11:30am - - - - - WSW 9 13 5 7 - - -
13/11:00am - - - - - W 9 13 5 7 - - -
13/10:30am - - - - - WNW 11 17 6 9 - - -
13/10:00am - - - - - WNW 11 15 6 8 - - -
13/09:30am - - - - - W 9 13 5 7 - - -
13/09:00am - - - - - WNW 11 15 6 8 - - -
13/08:30am - - - - - WNW 11 15 6 8 - - -
13/08:00am - - - - - W 11 13 6 7 - - -
13/07:30am - - - - - W 11 15 6 8 - - -
13/07:00am - - - - - W 11 13 6 7 - - -
13/06:30am - - - - - W 9 11 5 6 - - -
13/06:00am - - - - - W 11 13 6 7 - - -
13/05:30am - - - - - W 11 13 6 7 - - -
13/05:00am - - - - - W 13 15 7 8 - - -
13/04:30am - - - - - W 11 17 6 9 - - -
13/04:00am - - - - - WNW 11 15 6 8 - - -
13/03:30am - - - - - W 11 13 6 7 - - -
13/03:00am - - - - - W 9 13 5 7 - - -
13/02:30am - - - - - W 9 13 5 7 - - -
13/02:00am - - - - - WNW 9 15 5 8 - - -
13/01:30am - - - - - NNW 7 7 4 4 - - -
13/01:00am - - - - - NNW 6 7 3 4 - - -
13/12:30am - - - - - NE 4 9 2 5 - - -
13/12:00am - - - - - NNW 6 11 3 6 - - -
 
Date/Time
EST
Temp
°C
App
Temp
°C
Dew
Point
°C
Rel
Hum
%
Delta-T
°C
Wind Press
QNH
hPa
Press
MSL
hPa
Rain since
9am
mm
Dir  Spd
km/h
Gust
km/h
Spd
kts
Gust
kts
12/11:30pm - - - - - NNW 7 11 4 6 - - -
12/11:00pm - - - - - NNW 7 9 4 5 - - -
12/10:30pm - - - - - NW 9 11 5 6 - - -
12/10:00pm - - - - - WNW 7 11 4 6 - - -
12/09:30pm - - - - - NW 7 11 4 6 - - -
12/09:00pm - - - - - ENE 7 11 4 6 - - -
12/08:30pm - - - - - WNW 7 11 4 6 - - -
12/08:00pm - - - - - NW 11 15 6 8 - - -
12/07:30pm - - - - - W 9 13 5 7 - - -
12/07:00pm - - - - - W 7 9 4 5 - - -
12/06:30pm - - - - - W 6 6 3 3 - - -
12/06:00pm - - - - - WNW 7 9 4 5 - - -
12/05:30pm - - - - - WSW 7 9 4 5 - - -
12/05:00pm - - - - - WSW 13 20 7 11 - - -
12/04:30pm - - - - - NW 11 17 6 9 - - -
12/04:00pm - - - - - E 6 9 3 5 - - -
12/03:30pm - - - - - E 6 9 3 5 - - -
12/03:00pm - - - - - E 6 7 3 4 - - -
12/02:30pm - - - - - E 7 9 4 5 - - -
12/02:00pm - - - - - ENE 7 11 4 6 - - -
12/01:30pm - - - - - E 7 11 4 6 - - -
12/01:00pm - - - - - ESE 6 11 3 6 - - -
12/12:30pm - - - - - SE 6 9 3 5 - - -
12/12:00pm - - - - - NE 4 9 2 5 - - -
12/11:30am - - - - - W 6 9 3 5 - - -
12/11:00am - - - - - W 7 11 4 6 - - -
12/10:30am - - - - - WNW 11 13 6 7 - - -
12/10:00am - - - - - WNW 9 13 5 7 - - -
12/09:30am - - - - - W 11 13 6 7 - - -
12/09:00am - - - - - WNW 11 13 6 7 - - -
12/08:30am - - - - - W 11 15 6 8 - - -
12/08:00am - - - - - W 13 20 7 11 - - -
12/07:30am - - - - - W 13 15 7 8 - - -
12/07:00am - - - - - W 11 13 6 7 - - -
12/06:30am - - - - - W 11 15 6 8 - - -
12/06:00am - - - - - WNW 7 9 4 5 - - -
12/05:30am - - - - - W 9 11 5 6 - - -
12/05:00am - - - - - WNW 11 13 6 7 - - -
12/04:30am - - - - - W 9 11 5 6 - - -
12/04:00am - - - - - W 9 13 5 7 - - -
12/03:30am - - - - - WNW 7 9 4 5 - - -
12/03:00am - - - - - WNW 9 11 5 6 - - -
12/02:30am - - - - - WNW 7 11 4 6 - - -
12/02:00am - - - - - WNW 7 9 4 5 - - -
12/01:30am - - - - - WNW 9 13 5 7 - - -
12/01:00am - - - - - WNW 9 13 5 7 - - -
12/12:30am - - - - - W 9 13 5 7 - - -
12/12:00am - - - - - W 11 15 6 8 - - -
 
Date/Time
EST
Temp
°C
App
Temp
°C
Dew
Point
°C
Rel
Hum
%
Delta-T
°C
Wind Press
QNH
hPa
Press
MSL
hPa
Rain since
9am
mm
Dir  Spd
km/h
Gust
km/h
Spd
kts
Gust
kts
11/11:30pm - - - - - W 13 17 7 9 - - -
11/11:00pm - - - - - W 11 15 6 8 - - -
11/10:30pm - - - - - WNW 11 13 6 7 - - -
11/10:00pm - - - - - WNW 9 13 5 7 - - -
11/09:30pm - - - - - W 11 13 6 7 - - -
11/09:00pm - - - - - WSW 9 11 5 6 - - -
11/08:30pm - - - - - W 7 9 4 5 - - -
11/08:00pm - - - - - WNW 9 13 5 7 - - -
11/07:30pm - - - - - WNW 7 9 4 5 - - -
11/07:00pm - - - - - W 7 9 4 5 - - -
11/06:30pm - - - - - W 9 11 5 6 - - -
11/06:00pm - - - - - WNW 6 6 3 3 - - -
11/05:30pm - - - - - NW 6 6 3 3 - - -
11/05:00pm - - - - - N 6 6 3 3 - - -
11/04:30pm - - - - - N 6 7 3 4 - - -
11/04:00pm - - - - - N 6 9 3 5 - - -
11/03:30pm - - - - - CALM 0 2 0 1 - - -
11/03:00pm - - - - - NW 6 9 3 5 - - -
11/02:30pm - - - - - N 6 9 3 5 - - -
11/02:00pm - - - - - N 7 11 4 6 - - -
11/01:30pm - - - - - N 6 9 3 5 - - -
11/01:00pm - - - - - N 7 11 4 6 - - -
11/12:30pm - - - - - N 7 11 4 6 - - -
11/12:00pm - - - - - N 7 11 4 6 - - -
11/11:30am - - - - - N 6 9 3 5 - - -

Latest Capital City Observations: Canberra | Sydney | Melbourne | Brisbane | Adelaide | Perth | Hobart | Darwin

Other formats

Comma delimited format used in spreadsheet applications
http://www.bom.gov.au/fwo/IDN60901/IDN60901.95768.axf

JavaScript Object Notation format (JSON) in row-major order
http://www.bom.gov.au/fwo/IDN60901/IDN60901.95768.json

Data quality

Most of these data are generated automatically and are frequently updated. Quality checks on data are not normally performed. It is possible for incorrect values to appear. Refer to information at About Latest Weather Observations and please check the disclaimer before using these data.